Time;durP1;ratioP1;P1;durP2;ratioP2;P2;SDS_P1;SDS_P2;PMS_P1;PMS_P2;Temp;Humidity;BMP_temperature;BMP_pressure;BME280_temperature;BME280_humidity;BME280_pressure;Samples;Min_cycle;Max_cycle;Signal;HPM_P1;HPM_P2
2022/01/28 00:00:11;;;;;;;37.22;16.60;;;;;;;-7.86;66.06;93808.97;5033330;28;20554;-35
2022/01/28 00:05:02;;;;;;;35.83;15.38;;;;;;;-7.65;66.37;93804.22;5033165;28;20060;-36
2022/01/28 00:07:28;;;;;;;54.35;25.10;;;;;;;-7.67;66.13;93804.66;5033221;28;20479;-35
2022/01/28 00:09:53;;;;;;;112.72;43.03;;;;;;;-7.69;66.44;93795.53;5032804;28;20482;-36
2022/01/28 00:12:19;;;;;;;98.60;44.50;;;;;;;-7.63;66.38;93791.16;5032696;28;20045;-35
2022/01/28 00:14:53;;;;;;;75.88;34.58;;;;;;;-7.72;65.46;93800.56;5033242;28;20430;-35
2022/01/28 00:39:24;;;;;;;64.63;29.08;;;;;;;-7.73;66.43;93782.25;5032536;28;20029;-35
2022/01/28 00:41:50;;;;;;;53.50;25.95;;;;;;;-8.02;66.83;93784.16;5032481;28;20509;-35
2022/01/28 00:44:16;;;;;;;54.25;27.00;;;;;;;-8.18;67.15;93771.53;5032248;28;20437;-35
2022/01/28 00:46:41;;;;;;;65.40;31.50;;;;;;;-8.05;66.92;93775.03;5032096;28;20036;-35
2022/01/28 00:49:07;;;;;;;68.13;30.25;;;;;;;-7.93;67.14;93773.59;5032440;28;20498;-35
2022/01/28 00:51:32;;;;;;;72.40;31.90;;;;;;;-7.87;66.31;93767.28;5032058;28;20411;-35
2022/01/28 00:53:58;;;;;;;58.25;26.77;;;;;;;-8.00;66.26;93768.41;5032206;28;20025;-34
2022/01/28 00:56:23;;;;;;;64.60;29.55;;;;;;;-8.32;67.32;93758.56;5032144;28;20554;-35
2022/01/28 00:58:49;;;;;;;62.88;27.45;;;;;;;-8.13;66.66;93765.69;5031105;28;20025;-35
2022/01/28 01:01:14;;;;;;;65.93;27.65;;;;;;;-8.20;66.31;93765.84;5031930;28;20033;-35
2022/01/28 01:03:40;;;;;;;63.90;29.65;;;;;;;-8.14;66.03;93763.44;5032147;28;20036;-35
2022/01/28 01:06:05;;;;;;;69.03;30.13;;;;;;;-8.38;66.69;93738.78;5031753;28;20570;-35
2022/01/28 01:08:31;;;;;;;56.60;29.58;;;;;;;-8.10;66.04;93754.09;5032133;28;20168;-34
2022/01/28 01:10:56;;;;;;;65.13;26.17;;;;;;;-8.17;66.34;93746.28;5031693;28;20439;-34
2022/01/28 01:13:22;;;;;;;59.45;25.85;;;;;;;-8.43;67.12;93742.00;5031986;28;20199;-34
2022/01/28 01:15:53;;;;;;;51.38;26.70;;;;;;;-8.53;67.65;93743.00;5040619;28;20433;-34
2022/01/28 01:23:31;;;;;;;68.22;28.80;;;;;;;-8.29;67.75;93736.28;5051551;28;20037;-34
2022/01/28 01:28:36;;;;;;;76.45;35.13;;;;;;;-8.26;66.68;93723.97;5031604;28;20025;-34
2022/01/28 01:31:04;;;;;;;59.75;29.45;;;;;;;-7.99;66.20;93716.34;5031690;28;20033;-34
2022/01/28 01:33:34;;;;;;;54.58;26.88;;;;;;;-8.10;66.42;93716.59;5031679;28;20155;-34
2022/01/28 01:36:01;;;;;;;60.78;28.10;;;;;;;-8.58;66.75;93703.38;5031400;28;20588;-35
2022/01/28 01:38:31;;;;;;;56.63;24.58;;;;;;;-8.58;66.47;93703.38;5031187;28;20549;-35
2022/01/28 01:40:59;;;;;;;52.42;21.63;;;;;;;-9.11;67.49;93698.56;5034483;28;20028;-35
2022/01/28 01:53:48;;;;;;;34.75;15.95;;;;;;;-8.93;68.81;93686.28;5051093;28;20043;-35
2022/01/28 01:56:14;;;;;;;40.13;18.85;;;;;;;-8.60;67.45;93678.97;5050827;28;20033;-34
2022/01/28 01:58:41;;;;;;;37.35;19.80;;;;;;;-8.57;67.32;93683.47;5050742;28;20031;-35
2022/01/28 02:01:06;;;;;;;33.80;16.38;;;;;;;-8.39;68.35;93681.09;5033413;28;20021;-35
2022/01/28 02:03:32;;;;;;;41.33;18.83;;;;;;;-8.27;68.03;93680.38;5050632;28;20112;-35
2022/01/28 02:05:59;;;;;;;65.00;30.08;;;;;;;-8.21;67.11;93677.91;5050475;28;20063;-34
2022/01/28 02:08:31;;;;;;;63.28;30.73;;;;;;;-7.96;67.81;93675.28;5050734;28;20032;-34
2022/01/28 02:10:58;;;;;;;59.33;28.70;;;;;;;-8.15;67.23;93678.88;5050598;28;20048;-35
2022/01/28 02:13:25;;;;;;;53.17;25.02;;;;;;;-7.90;67.08;93674.34;5050668;28;20029;-35
2022/01/28 02:15:52;;;;;;;44.95;20.10;;;;;;;-7.70;65.32;93660.75;5040892;28;20084;-34
2022/01/28 02:18:17;;;;;;;52.17;23.00;;;;;;;-7.61;65.33;93663.56;5030478;28;20033;-34
2022/01/28 02:20:48;;;;;;;55.08;24.30;;;;;;;-7.82;66.15;93667.59;5035904;28;20027;-34
2022/01/28 02:23:13;;;;;;;47.05;19.60;;;;;;;-8.02;66.58;93661.69;5050292;28;20604;-34
2022/01/28 02:25:39;;;;;;;41.05;19.00;;;;;;;-8.27;67.22;93664.31;5050550;28;20032;-34
2022/01/28 02:28:07;;;;;;;35.42;18.50;;;;;;;-8.46;68.27;93662.53;5032056;28;20030;-34
2022/01/28 02:30:33;;;;;;;42.05;21.48;;;;;;;-8.42;68.83;93652.47;5034218;28;20582;-34
2022/01/28 02:33:18;;;;;;;42.35;19.15;;;;;;;-8.32;68.99;93658.72;5050407;28;20116;-35
2022/01/28 02:35:44;;;;;;;32.60;16.67;;;;;;;-8.15;69.11;93654.78;5042714;28;20033;-35
2022/01/28 02:38:11;;;;;;;29.88;14.23;;;;;;;-8.03;69.24;93656.72;5038626;28;20036;-35
2022/01/28 02:40:37;;;;;;;47.63;23.75;;;;;;;-8.23;68.39;93621.34;5029141;28;20499;-34
2022/01/28 02:43:17;;;;;;;37.72;20.00;;;;;;;-8.06;68.34;93647.66;5030099;28;20112;-35
2022/01/28 02:45:45;;;;;;;37.45;18.92;;;;;;;-8.08;68.14;93619.78;5030366;28;20056;-35
2022/01/28 02:48:30;;;;;;;57.08;23.42;;;;;;;-7.84;68.95;93645.84;5030388;28;20030;-34
2022/01/28 02:53:28;;;;;;;33.63;17.63;;;;;;;-7.60;69.12;93646.28;5030471;28;20033;-34
2022/01/28 02:56:02;;;;;;;40.53;20.83;;;;;;;-7.60;68.41;93621.44;5029832;28;20032;-34
2022/01/28 02:58:28;;;;;;;36.75;18.23;;;;;;;-7.40;68.82;93640.72;5029975;28;20033;-35
2022/01/28 03:00:57;;;;;;;41.58;19.15;;;;;;;-7.78;69.68;93641.47;5030335;28;20115;-34
2022/01/28 03:03:24;;;;;;;41.10;17.35;;;;;;;-7.82;69.66;93635.44;5030292;28;20037;-34
2022/01/28 03:05:50;;;;;;;31.77;16.55;;;;;;;-7.75;69.65;93640.59;5030141;28;20056;-35
2022/01/28 03:08:16;;;;;;;37.08;16.52;;;;;;;-7.88;69.18;93642.50;5030235;28;20053;-34
2022/01/28 03:13:33;;;;;;;29.98;15.43;;;;;;;-8.48;70.13;93632.00;5050530;28;20035;-34
2022/01/28 03:16:08;;;;;;;40.47;17.13;;;;;;;-8.27;71.34;93645.56;5049668;28;20033;-35
2022/01/28 03:23:55;;;;;;;33.97;14.30;;;;;;;-8.24;72.65;93644.69;5053901;28;20472;-34
2022/01/28 03:26:24;;;;;;;33.97;17.23;;;;;;;-8.30;72.18;93619.66;5050260;28;20025;-34
2022/01/28 03:28:49;;;;;;;27.52;14.18;;;;;;;-8.23;71.41;93626.72;5033951;28;20034;-34
2022/01/28 03:31:15;;;;;;;27.27;12.45;;;;;;;-8.00;70.94;93632.53;5033788;28;20075;-34
2022/01/28 03:33:40;;;;;;;26.58;11.82;;;;;;;-7.83;69.72;93615.19;5038745;28;20032;-34
2022/01/28 03:36:09;;;;;;;24.98;13.38;;;;;;;-7.86;69.41;93620.66;5053789;28;20510;-34
2022/01/28 03:38:35;;;;;;;28.60;14.85;;;;;;;-7.66;70.20;93626.56;5053381;28;20029;-34
2022/01/28 03:41:01;;;;;;;27.05;14.13;;;;;;;-7.51;68.69;93624.22;5053372;28;20048;-34
2022/01/28 03:43:26;;;;;;;28.83;13.05;;;;;;;-7.55;69.09;93616.28;5053656;28;20037;-34
2022/01/28 03:45:52;;;;;;;40.83;17.83;;;;;;;-7.64;68.96;93616.16;5053012;28;20413;-34
2022/01/28 03:48:17;;;;;;;36.55;16.83;;;;;;;-7.55;69.43;93610.91;5053624;28;20096;-34
2022/01/28 03:50:43;;;;;;;38.45;18.55;;;;;;;-7.44;69.70;93605.22;5053491;28;20027;-34
2022/01/28 03:53:09;;;;;;;36.75;16.73;;;;;;;-7.20;69.08;93609.06;5053171;28;20414;-34
2022/01/28 03:55:35;;;;;;;31.30;14.23;;;;;;;-7.10;68.19;93610.66;5053416;28;20094;-34
2022/01/28 03:58:02;;;;;;;36.03;14.90;;;;;;;-7.04;68.41;93601.63;5053162;28;20731;-34
2022/01/28 04:00:30;;;;;;;29.05;14.13;;;;;;;-7.20;68.59;93593.72;5053033;28;20020;-34
2022/01/28 04:03:10;;;;;;;30.70;15.20;;;;;;;-7.42;68.82;93571.44;5036133;28;20033;-34
2022/01/28 04:13:31;;;;;;;28.67;15.55;;;;;;;-7.84;71.56;93584.22;5033129;28;20035;-34
2022/01/28 04:18:25;;;;;;;53.03;28.00;;;;;;;-8.02;71.82;93578.63;5032840;28;20458;-34
2022/01/28 04:20:51;;;;;;;98.10;44.92;;;;;;;-8.25;72.03;93578.91;5032752;28;20033;-34
2022/01/28 04:23:16;;;;;;;114.90;49.47;;;;;;;-8.14;72.91;93579.34;5033033;28;20101;-34
2022/01/28 04:25:42;;;;;;;89.78;42.53;;;;;;;-8.03;73.31;93587.84;5032716;28;20418;-34
2022/01/28 04:28:07;;;;;;;77.93;36.25;;;;;;;-7.85;73.55;93587.31;5032171;28;20021;-34
2022/01/28 04:30:33;;;;;;;56.53;28.35;;;;;;;-7.61;72.81;93569.75;5032444;28;20032;-35
2022/01/28 04:32:58;;;;;;;52.45;21.65;;;;;;;-7.56;73.55;93577.25;5031502;28;20056;-34
2022/01/28 04:35:24;;;;;;;48.13;22.02;;;;;;;-7.31;73.78;93576.47;5032487;28;20029;-34
2022/01/28 04:38:38;;;;;;;70.63;24.52;;;;;;;-7.16;73.13;93574.81;5032170;28;20025;-34
2022/01/28 04:40:50;;;;;;;56.60;21.95;;;;;;;-7.04;73.14;93579.41;5024151;28;20578;-34
2022/01/28 04:43:25;;;;;;;50.38;19.75;;;;;;;-6.99;72.99;93578.84;5032480;28;20044;-34
2022/01/28 04:46:01;;;;;;;55.95;23.83;;;;;;;-7.11;72.22;93568.91;5032155;28;20556;-34
2022/01/28 04:48:40;;;;;;;37.05;17.33;;;;;;;-7.31;71.85;93571.09;5032252;28;20093;-34
2022/01/28 04:59:12;;;;;;;24.35;11.88;;;;;;;-7.86;70.72;93561.72;5016618;28;20030;-34
2022/01/28 05:27:38;;;;;;;18.83;8.38;;;;;;;-7.37;69.84;93610.38;5036476;28;20580;-34
2022/01/28 05:30:06;;;;;;;24.17;9.50;;;;;;;-7.58;69.96;93579.63;5031715;28;20025;-34
2022/01/28 05:32:33;;;;;;;40.27;19.97;;;;;;;-7.64;70.06;93600.06;5031719;28;20060;-34
2022/01/28 05:34:58;;;;;;;67.05;26.60;;;;;;;-7.85;71.50;93614.88;5013695;28;20064;-34
2022/01/28 05:37:24;;;;;;;37.65;16.70;;;;;;;-7.73;72.05;93602.66;5031133;28;20022;-34
2022/01/28 05:39:49;;;;;;;27.90;14.48;;;;;;;-7.71;71.82;93600.31;5031381;28;20072;-34
2022/01/28 05:42:15;;;;;;;26.98;14.35;;;;;;;-7.76;71.52;93611.56;5031259;28;20026;-34
2022/01/28 05:44:40;;;;;;;17.42;9.95;;;;;;;-7.79;71.34;93613.16;5031181;28;20087;-34
2022/01/28 05:47:06;;;;;;;17.95;9.45;;;;;;;-7.95;70.52;93604.47;5031119;28;20131;-34
2022/01/28 05:49:32;;;;;;;20.35;11.05;;;;;;;-7.74;71.08;93619.91;5031084;28;20031;-34
2022/01/28 05:51:57;;;;;;;29.83;13.10;;;;;;;-7.67;71.95;93627.75;5030859;28;20025;-34
2022/01/28 05:54:23;;;;;;;59.60;14.80;;;;;;;-7.50;71.96;93626.47;5030880;28;20021;-34
2022/01/28 05:56:49;;;;;;;64.78;16.58;;;;;;;-7.56;73.73;93630.13;5031131;28;20103;-34
2022/01/28 05:59:14;;;;;;;67.80;18.15;;;;;;;-7.43;74.45;93622.81;5030918;28;20031;-34
2022/01/28 06:01:40;;;;;;;73.18;18.17;;;;;;;-7.41;75.25;93625.81;5030388;28;20533;-34
2022/01/28 06:04:05;;;;;;;71.72;20.83;;;;;;;-7.38;76.10;93623.03;5030015;28;20117;-34
2022/01/28 06:06:32;;;;;;;87.85;18.55;;;;;;;-7.53;76.76;93631.91;5030722;28;20036;-34
2022/01/28 06:08:58;;;;;;;59.58;17.50;;;;;;;-7.36;76.54;93633.34;5031045;28;20029;-34
2022/01/28 06:11:24;;;;;;;80.85;18.45;;;;;;;-7.69;77.49;93626.69;5030618;28;20522;-34
2022/01/28 06:13:50;;;;;;;83.90;23.38;;;;;;;-7.61;78.06;93619.91;5030729;28;20442;-34
2022/01/28 06:16:17;;;;;;;75.90;24.63;;;;;;;-7.54;77.53;93625.06;5030818;28;20049;-34
2022/01/28 06:18:43;;;;;;;80.75;26.45;;;;;;;-7.55;76.95;93621.63;5030814;28;20041;-34
2022/01/28 06:21:09;;;;;;;56.15;19.00;;;;;;;-7.88;77.09;93631.78;5030585;28;20036;-34
2022/01/28 06:23:36;;;;;;;57.40;13.63;;;;;;;-7.74;77.23;93638.69;5044878;28;20029;-34
2022/01/28 06:26:03;;;;;;;60.10;14.88;;;;;;;-7.57;75.96;93644.69;5048896;28;20032;-34
2022/01/28 06:28:29;;;;;;;158.05;43.83;;;;;;;-7.77;75.45;93642.97;5030662;28;20396;-34
2022/01/28 06:30:55;;;;;;;58.00;23.27;;;;;;;-7.80;76.15;93648.44;5030397;28;20115;-35
2022/01/28 06:33:21;;;;;;;75.85;20.48;;;;;;;-7.71;75.47;93645.88;5030610;28;20064;-34
2022/01/28 06:35:47;;;;;;;69.50;21.35;;;;;;;-7.96;76.39;93643.16;5030511;28;20414;-34
2022/01/28 06:38:13;;;;;;;67.05;20.90;;;;;;;-7.79;76.32;93639.97;5030176;28;20434;-35
2022/01/28 06:40:38;;;;;;;64.63;20.20;;;;;;;-7.91;75.77;93645.31;5030202;28;20032;-34
2022/01/28 06:43:08;;;;;;;84.53;28.10;;;;;;;-8.05;76.34;93640.34;5030197;28;20030;-34
2022/01/28 06:45:34;;;;;;;96.22;35.70;;;;;;;-8.25;77.10;93640.50;5030121;28;20083;-35
2022/01/28 06:47:59;;;;;;;72.28;26.50;;;;;;;-8.17;77.04;93639.16;5030114;28;20025;-34
2022/01/28 06:50:25;;;;;;;51.58;23.17;;;;;;;-8.29;77.17;93647.91;5030056;28;20029;-35
2022/01/28 06:52:50;;;;;;;46.10;19.85;;;;;;;-7.97;76.66;93636.31;5030078;28;20058;-34
2022/01/28 06:55:16;;;;;;;43.35;16.33;;;;;;;-7.59;75.59;93639.00;5029411;28;20065;-35
2022/01/28 06:57:42;;;;;;;42.88;19.67;;;;;;;-7.16;74.16;93633.84;5030235;28;20029;-35
2022/01/28 07:00:10;;;;;;;54.90;18.85;;;;;;;-6.88;73.50;93640.97;5030232;28;20025;-35
2022/01/28 07:02:36;;;;;;;40.35;17.17;;;;;;;-6.48;72.41;93646.56;5029943;28;20457;-35
2022/01/28 07:05:02;;;;;;;50.53;17.42;;;;;;;-6.26;71.91;93640.00;5029948;28;20108;-34
2022/01/28 07:07:28;;;;;;;96.70;31.15;;;;;;;-5.91;70.36;93645.34;5029975;28;20037;-34
2022/01/28 07:09:53;;;;;;;85.63;31.10;;;;;;;-5.54;69.75;93655.06;5029689;28;20030;-34
2022/01/28 07:12:20;;;;;;;67.10;29.13;;;;;;;-5.03;66.62;93650.06;5043421;28;20061;-34
2022/01/28 07:14:46;;;;;;;49.65;20.23;;;;;;;-4.44;63.83;93654.22;5047903;28;20037;-34
2022/01/28 07:17:11;;;;;;;53.42;22.25;;;;;;;-4.35;63.13;93651.53;5047706;28;20039;-34
2022/01/28 07:19:37;;;;;;;62.58;27.63;;;;;;;-4.11;61.50;93649.72;5034612;28;20554;-34
2022/01/28 07:22:03;;;;;;;61.72;26.35;;;;;;;-3.68;60.94;93656.75;5027519;28;20461;-35
2022/01/28 07:24:29;;;;;;;64.03;28.48;;;;;;;-3.09;58.87;93653.25;5027262;28;20029;-34
2022/01/28 07:26:55;;;;;;;49.33;23.35;;;;;;;-3.22;58.53;93658.09;5027283;28;20029;-34
2022/01/28 07:29:22;;;;;;;47.65;21.50;;;;;;;-2.92;58.28;93632.06;5027329;28;20175;-34
2022/01/28 07:31:48;;;;;;;46.97;20.15;;;;;;;-2.33;56.34;93655.41;5027511;28;20103;-34
2022/01/28 07:34:14;;;;;;;81.60;41.95;;;;;;;-1.34;54.93;93653.81;5027518;28;20554;-35
2022/01/28 07:36:40;;;;;;;68.40;30.95;;;;;;;-0.41;52.17;93664.59;5027437;28;20034;-35
2022/01/28 07:39:06;;;;;;;53.42;27.85;;;;;;;0.34;49.95;93669.19;5047359;28;20107;-35
2022/01/28 07:41:33;;;;;;;44.30;25.00;;;;;;;0.99;49.46;93671.06;5029863;28;20044;-36
2022/01/28 07:43:59;;;;;;;42.22;22.65;;;;;;;0.76;48.33;93674.81;5046924;28;20036;-35
2022/01/28 07:46:24;;;;;;;41.70;22.13;;;;;;;0.14;48.99;93669.97;5046158;28;20802;-35
2022/01/28 07:48:50;;;;;;;48.90;23.33;;;;;;;-0.55;50.96;93657.25;5046918;28;20033;-35
2022/01/28 07:51:16;;;;;;;46.22;25.80;;;;;;;-0.01;50.74;93663.88;5027128;28;20040;-35
2022/01/28 07:53:42;;;;;;;43.33;23.33;;;;;;;0.70;49.76;93660.44;5044272;28;20041;-35
2022/01/28 07:56:07;;;;;;;47.55;25.90;;;;;;;1.88;47.80;93663.50;5046879;28;20506;-35
2022/01/28 07:58:33;;;;;;;46.40;26.50;;;;;;;2.53;45.15;93670.47;5046645;28;20033;-35
2022/01/28 08:00:58;;;;;;;74.60;41.88;;;;;;;2.76;45.39;93669.28;5047160;28;20029;-35
2022/01/28 08:03:24;;;;;;;92.05;51.17;;;;;;;3.45;43.91;93673.03;5047417;28;20090;-36
2022/01/28 08:05:49;;;;;;;89.43;51.30;;;;;;;3.88;42.28;93676.19;5047236;28;20509;-35
2022/01/28 08:08:19;;;;;;;101.63;53.00;;;;;;;4.84;41.08;93678.06;5050559;28;20474;-36
2022/01/28 08:10:44;;;;;;;;;;;;;;;5.83;38.74;93685.53;5050841;28;20132;-36
2022/01/28 08:13:10;;;;;;;79.57;43.65;;;;;;;6.32;37.48;93683.59;5050308;28;20020;-36
2022/01/28 08:15:36;;;;;;;60.95;34.25;;;;;;;7.37;36.09;93682.22;5039965;28;20037;-36
2022/01/28 08:18:03;;;;;;;52.58;30.95;;;;;;;7.85;33.62;93650.22;5030239;28;20126;-36
2022/01/28 08:20:29;;;;;;;67.03;38.05;;;;;;;6.47;36.66;93675.69;5030723;28;20104;-36
2022/01/28 08:22:58;;;;;;;58.58;33.90;;;;;;;5.99;37.46;93664.75;5030520;28;20033;-36
2022/01/28 08:25:25;;;;;;;60.97;35.55;;;;;;;6.84;37.49;93677.72;5030836;28;20546;-36
2022/01/28 08:27:51;;;;;;;52.65;30.90;;;;;;;8.03;36.40;93674.91;5031457;28;20021;-36
2022/01/28 08:30:19;;;;;;;45.40;28.25;;;;;;;9.07;33.95;93678.91;5050589;28;20040;-36
2022/01/28 08:32:45;;;;;;;40.83;26.48;;;;;;;9.67;33.16;93673.25;5050545;28;20118;-36
2022/01/28 08:35:12;;;;;;;39.05;25.50;;;;;;;10.34;31.92;93684.16;5050183;28;20028;-36
2022/01/28 08:37:37;;;;;;;29.15;20.38;;;;;;;10.56;31.53;93685.56;5049913;28;20040;-37
2022/01/28 08:40:05;;;;;;;30.90;21.33;;;;;;;11.15;30.96;93669.84;5049745;28;20036;-36
2022/01/28 08:42:31;;;;;;;28.15;18.95;;;;;;;11.80;30.62;93671.88;5049816;28;20514;-36
2022/01/28 08:44:56;;;;;;;30.70;18.83;;;;;;;12.62;29.44;93664.84;5049902;28;20039;-37
2022/01/28 08:47:22;;;;;;;23.02;16.33;;;;;;;13.37;28.15;93663.88;5049649;28;20029;-36
2022/01/28 08:49:47;;;;;;;25.63;17.90;;;;;;;13.54;27.88;93663.97;5050087;28;20041;-36
2022/01/28 08:52:13;;;;;;;24.75;13.63;;;;;;;13.66;27.78;93665.00;5048895;28;20497;-37
2022/01/28 08:54:41;;;;;;;22.02;14.55;;;;;;;13.59;28.32;93659.53;5050125;28;20029;-36
2022/01/28 08:57:07;;;;;;;19.80;11.25;;;;;;;14.30;27.08;93655.16;5049921;28;20033;-36
2022/01/28 08:59:32;;;;;;;21.58;12.75;;;;;;;14.91;27.12;93664.41;5049819;28;20091;-36
2022/01/28 09:01:58;;;;;;;20.27;12.90;;;;;;;15.15;26.75;93660.81;5049929;28;20039;-36
2022/01/28 09:04:23;;;;;;;19.23;11.60;;;;;;;15.61;26.20;93654.72;5049423;28;20025;-37
2022/01/28 09:06:49;;;;;;;15.50;10.57;;;;;;;15.52;25.59;93664.47;5049794;28;20036;-36
2022/01/28 09:09:17;;;;;;;19.75;11.35;;;;;;;15.61;24.22;93657.50;5049375;28;20494;-36
2022/01/28 09:11:53;;;;;;;19.52;13.07;;;;;;;16.02;25.39;93655.81;5039647;28;20053;-36
2022/01/28 09:14:22;;;;;;;19.33;11.18;;;;;;;15.32;24.06;93653.75;5029670;28;20115;-36
2022/01/28 09:16:48;;;;;;;21.65;13.45;;;;;;;14.84;26.49;93647.78;5029840;28;20029;-36
2022/01/28 09:19:14;;;;;;;20.65;11.93;;;;;;;13.55;26.95;93648.09;5028989;28;20519;-36
2022/01/28 09:21:41;;;;;;;17.77;11.13;;;;;;;14.47;27.58;93654.47;5029788;28;20060;-37
2022/01/28 09:24:06;;;;;;;20.48;11.35;;;;;;;13.93;27.98;93645.06;5029263;28;20037;-36
2022/01/28 09:26:32;;;;;;;30.88;15.63;;;;;;;13.37;27.99;93643.72;5029587;28;20090;-36
2022/01/28 09:28:58;;;;;;;24.40;16.33;;;;;;;12.64;29.25;93647.69;5048958;28;20033;-36
2022/01/28 09:31:23;;;;;;;30.30;20.27;;;;;;;12.00;30.26;93648.84;5049243;28;20036;-37
2022/01/28 09:33:49;;;;;;;21.25;13.32;;;;;;;11.53;31.56;93645.06;5049161;28;20055;-36
2022/01/28 09:36:15;;;;;;;21.98;13.30;;;;;;;11.47;31.45;93634.19;5048753;28;20553;-36
2022/01/28 09:38:40;;;;;;;19.33;11.05;;;;;;;11.79;30.71;93655.84;5048824;28;20098;-36
2022/01/28 09:41:08;;;;;;;22.33;11.90;;;;;;;11.45;31.00;93645.06;5048928;28;20097;-36
2022/01/28 09:43:34;;;;;;;24.55;13.23;;;;;;;10.68;32.60;93647.38;5049135;28;20029;-36
2022/01/28 09:46:01;;;;;;;22.33;13.63;;;;;;;10.21;33.59;93653.88;5048944;28;20025;-36
2022/01/28 09:48:26;;;;;;;21.65;14.52;;;;;;;9.22;35.33;93629.47;5048679;28;20021;-36
2022/01/28 09:50:52;;;;;;;23.05;13.63;;;;;;;9.07;36.39;93646.56;5049163;28;20189;-36
2022/01/28 09:53:18;;;;;;;21.30;11.18;;;;;;;8.84;36.36;93651.06;5046864;28;20079;-36
2022/01/28 09:55:47;;;;;;;23.35;11.93;;;;;;;8.50;36.77;93652.28;5048588;28;20032;-36
2022/01/28 09:58:14;;;;;;;23.80;13.70;;;;;;;8.00;37.88;93637.44;5048327;28;20069;-36
2022/01/28 10:00:40;;;;;;;20.23;12.48;;;;;;;7.56;39.33;93605.97;5049857;28;20583;-36
2022/01/28 10:03:13;;;;;;;27.77;15.30;;;;;;;7.60;38.58;93636.63;5050733;28;20025;-36
2022/01/28 10:05:41;;;;;;;34.88;17.70;;;;;;;7.50;41.29;93652.03;5050753;28;20033;-36
2022/01/28 10:08:09;;;;;;;34.78;18.83;;;;;;;7.38;40.25;93648.00;5050504;28;20054;-36
2022/01/28 10:11:02;;;;;;;44.17;25.05;;;;;;;7.26;41.43;93643.91;5050694;28;20053;-37
2022/01/28 10:13:45;;;;;;;59.13;34.85;;;;;;;7.44;41.48;93651.38;5050562;28;20047;-36
2022/01/28 10:16:14;;;;;;;61.63;35.20;;;;;;;7.50;41.73;93649.28;5038153;28;20037;-36
2022/01/28 10:18:41;;;;;;;;;;;;;;;7.55;40.79;93651.22;5031123;28;20021;-36
2022/01/28 10:21:39;;;;;;;38.53;20.95;;;;;;;7.29;40.58;93645.63;5033376;28;20337;-36
2022/01/28 10:24:10;;;;;;;32.63;16.77;;;;;;;7.66;40.85;93647.53;5035182;28;20119;-36
2022/01/28 10:26:54;;;;;;;19.52;11.48;;;;;;;8.46;37.34;93636.09;5039580;28;20033;-36
2022/01/28 10:29:28;;;;;;;21.20;11.50;;;;;;;8.91;38.72;93639.41;5038223;28;20021;-37
2022/01/28 10:32:03;;;;;;;22.92;14.70;;;;;;;9.00;38.66;93646.50;5039260;28;20021;-36
2022/01/28 10:34:40;;;;;;;26.00;13.38;;;;;;;9.06;39.80;93653.34;5041671;28;20108;-37
2022/01/28 10:37:11;;;;;;;20.15;12.48;;;;;;;8.34;38.63;93643.81;5041594;28;20021;-36
2022/01/28 10:39:53;;;;;;;25.42;14.05;;;;;;;8.21;39.29;93635.53;5045948;28;20090;-37
2022/01/28 10:42:34;;;;;;;18.83;11.50;;;;;;;8.13;39.06;93644.97;5041458;28;20025;-36
2022/01/28 10:45:09;;;;;;;18.38;11.68;;;;;;;8.38;39.01;93636.00;5030586;28;20080;-36
2022/01/28 10:47:38;;;;;;;18.95;12.23;;;;;;;7.67;38.70;93632.53;5030084;28;20024;-37
2022/01/28 10:50:23;;;;;;;35.88;20.17;;;;;;;7.98;40.31;93644.72;5029971;28;20087;-36
2022/01/28 10:53:17;;;;;;;19.60;12.32;;;;;;;7.30;40.17;93643.59;5012925;28;20605;-36
2022/01/28 10:55:53;;;;;;;23.13;11.98;;;;;;;6.04;41.86;93637.28;5030332;28;20506;-36
2022/01/28 10:58:21;;;;;;;21.67;12.88;;;;;;;5.52;43.62;93647.00;5033615;28;20028;-36
2022/01/28 11:00:53;;;;;;;21.17;13.23;;;;;;;4.53;45.85;93644.41;5038622;28;20029;-36
2022/01/28 11:03:26;;;;;;;32.20;18.02;;;;;;;4.78;46.62;93644.53;5039076;28;20028;-36
2022/01/28 11:05:56;;;;;;;24.65;14.32;;;;;;;4.71;46.60;93626.69;5029817;28;20026;-37
2022/01/28 11:08:24;;;;;;;25.33;13.05;;;;;;;4.91;45.79;93631.78;5029666;28;20534;-36
2022/01/28 11:10:49;;;;;;;24.38;14.13;;;;;;;4.75;46.29;93642.81;5027783;28;20057;-36
2022/01/28 11:13:15;;;;;;;22.67;14.48;;;;;;;4.65;47.27;93644.38;5027742;28;20029;-36
2022/01/28 11:15:40;;;;;;;24.10;13.73;;;;;;;4.41;47.44;93640.25;5036001;28;20021;-36
2022/01/28 11:18:09;;;;;;;28.77;15.07;;;;;;;4.31;47.51;93638.34;5047156;28;20104;-36
2022/01/28 11:20:54;;;;;;;28.15;14.98;;;;;;;4.51;49.01;93643.44;5047232;28;20036;-36
2022/01/28 11:23:52;;;;;;;31.00;15.23;;;;;;;4.64;48.20;93646.34;5046273;28;20083;-36
2022/01/28 11:26:24;;;;;;;27.27;15.23;;;;;;;5.04;47.67;93639.41;5026165;28;20017;-36
2022/01/28 11:28:51;;;;;;;26.63;14.63;;;;;;;5.35;46.35;93634.16;5009836;28;20032;-36
2022/01/28 11:31:46;;;;;;;27.42;14.80;;;;;;;5.64;46.31;93631.94;5027512;28;20104;-36
2022/01/28 11:34:22;;;;;;;24.05;13.30;;;;;;;5.45;45.28;93639.31;5036537;28;21102;-37
2022/01/28 11:36:48;;;;;;;28.65;16.02;;;;;;;5.28;47.16;93636.72;5033315;28;20025;-36
2022/01/28 11:39:45;;;;;;;27.42;15.60;;;;;;;5.00;48.25;93636.19;5046780;28;20032;-36
2022/01/28 11:42:14;;;;;;;30.85;15.68;;;;;;;4.99;47.90;93637.44;5042132;28;20461;-36
2022/01/28 11:44:50;;;;;;;27.55;15.65;;;;;;;5.07;47.54;93627.41;5042701;28;20033;-36
2022/01/28 11:47:26;;;;;;;27.02;16.33;;;;;;;4.96;48.31;93633.72;5042890;28;20060;-36
2022/01/28 11:50:11;;;;;;;26.50;15.13;;;;;;;4.81;47.36;93629.88;5051444;28;20083;-36
2022/01/28 11:52:51;;;;;;;25.42;14.75;;;;;;;4.86;47.24;93624.34;5049188;28;20040;-36
2022/01/28 11:55:28;;;;;;;40.75;20.48;;;;;;;5.11;48.36;93630.66;5040847;28;20025;-36
2022/01/28 11:58:04;;;;;;;33.83;18.58;;;;;;;5.10;47.61;93629.91;5038263;28;20022;-36
2022/01/28 12:00:35;;;;;;;25.52;14.52;;;;;;;5.26;47.66;93633.75;5037120;28;20526;-36
2022/01/28 12:03:02;;;;;;;25.55;14.80;;;;;;;4.85;48.95;93630.34;5039419;28;20028;-36
2022/01/28 12:05:30;;;;;;;41.35;17.30;;;;;;;4.78;47.53;93628.88;5038018;28;20494;-36
2022/01/28 12:08:03;;;;;;;28.08;16.35;;;;;;;4.16;49.31;93611.28;5040716;28;20033;-35
2022/01/28 12:10:31;;;;;;;32.60;18.10;;;;;;;4.44;51.04;93611.19;5039922;28;20029;-36
2022/01/28 12:12:59;;;;;;;31.83;16.90;;;;;;;4.73;50.19;93609.75;5038168;28;20029;-35
2022/01/28 12:15:28;;;;;;;33.50;16.83;;;;;;;4.69;49.75;93614.75;5038966;28;20119;-36
2022/01/28 12:18:06;;;;;;;;;;;;;;;4.98;50.21;93606.59;5040828;28;20033;-36
2022/01/28 12:20:43;;;;;;;38.20;21.70;;;;;;;5.14;49.16;93610.47;5037168;28;19983;-36
2022/01/28 12:23:09;;;;;;;35.55;19.20;;;;;;;5.03;48.86;93611.28;5037815;28;20078;-36
2022/01/28 12:25:45;;;;;;;32.92;16.52;;;;;;;5.02;48.99;93609.06;5041952;28;20052;-36
2022/01/28 12:28:12;;;;;;;33.20;17.55;;;;;;;4.87;49.36;93611.41;5034500;28;20530;-36
2022/01/28 12:30:38;;;;;;;32.92;19.63;;;;;;;4.63;49.73;93620.28;5040090;28;20076;-36
2022/01/28 12:33:04;;;;;;;29.67;18.00;;;;;;;4.84;50.15;93618.63;5035484;28;20040;-35
2022/01/28 12:35:29;;;;;;;34.55;17.13;;;;;;;4.87;49.35;93616.88;5041884;28;20028;-36
2022/01/28 12:38:00;;;;;;;28.92;16.60;;;;;;;4.38;50.83;93622.13;5039184;28;20021;-35
2022/01/28 12:40:29;;;;;;;34.38;18.67;;;;;;;4.58;50.28;93621.78;5036854;28;20025;-35
2022/01/28 12:42:55;;;;;;;59.10;37.08;;;;;;;4.72;50.45;93619.22;5040988;28;20022;-36
2022/01/28 12:45:21;;;;;;;30.02;16.88;;;;;;;4.51;49.59;93594.22;5035883;28;20109;-36
2022/01/28 12:47:46;;;;;;;33.15;18.50;;;;;;;4.35;50.64;93608.75;5038716;28;20021;-36
2022/01/28 12:50:13;;;;;;;35.00;17.48;;;;;;;4.06;51.90;93626.50;5037362;28;20029;-36
2022/01/28 12:52:39;;;;;;;34.92;19.02;;;;;;;4.16;52.69;93627.69;5036705;28;20029;-36
2022/01/28 12:55:05;;;;;;;36.78;19.40;;;;;;;4.40;52.23;93618.88;5036403;28;20074;-36
2022/01/28 12:57:31;;;;;;;31.00;17.83;;;;;;;4.39;51.26;93615.44;5023174;28;20044;-36
2022/01/28 12:59:57;;;;;;;33.08;18.20;;;;;;;3.94;53.30;93608.66;5038540;28;20029;-36
2022/01/28 13:02:23;;;;;;;39.67;22.65;;;;;;;3.97;52.97;93607.66;5031813;28;20053;-36
2022/01/28 13:09:51;;;;;;;32.10;18.02;;;;;;;4.60;51.48;93596.66;5048073;28;20574;-36